sensor_id;sensor_type;location;lat;lon;timestamp;P1;durP1;ratioP1;P2;durP2;ratioP2
41456;SDS011;27197;51.752;5.220;2023-08-24T00:00:07;1.87;;;1.10;;
41456;SDS011;27197;51.752;5.220;2023-08-24T00:02:37;2.33;;;1.30;;
41456;SDS011;27197;51.752;5.220;2023-08-24T00:05:07;1.45;;;0.98;;
41456;SDS011;27197;51.752;5.220;2023-08-24T00:07:35;2.50;;;1.50;;
41456;SDS011;27197;51.752;5.220;2023-08-24T00:10:06;1.40;;;1.00;;
41456;SDS011;27197;51.752;5.220;2023-08-24T00:12:36;1.25;;;0.90;;
41456;SDS011;27197;51.752;5.220;2023-08-24T00:15:07;2.22;;;1.02;;
41456;SDS011;27197;51.752;5.220;2023-08-24T00:17:37;2.67;;;1.00;;
41456;SDS011;27197;51.752;5.220;2023-08-24T00:20:09;2.15;;;1.17;;
41456;SDS011;27197;51.752;5.220;2023-08-24T00:22:39;2.17;;;1.25;;
41456;SDS011;27197;51.752;5.220;2023-08-24T00:25:09;2.20;;;1.22;;
41456;SDS011;27197;51.752;5.220;2023-08-24T00:27:39;4.08;;;1.95;;
41456;SDS011;27197;51.752;5.220;2023-08-24T00:30:10;1.87;;;0.90;;
41456;SDS011;27197;51.752;5.220;2023-08-24T00:32:41;2.80;;;1.60;;
41456;SDS011;27197;51.752;5.220;2023-08-24T00:35:12;2.27;;;0.98;;
41456;SDS011;27197;51.752;5.220;2023-08-24T00:37:41;1.77;;;1.12;;
41456;SDS011;27197;51.752;5.220;2023-08-24T00:40:11;1.40;;;0.98;;
41456;SDS011;27197;51.752;5.220;2023-08-24T00:42:43;1.70;;;1.00;;
41456;SDS011;27197;51.752;5.220;2023-08-24T00:45:13;1.65;;;1.00;;
41456;SDS011;27197;51.752;5.220;2023-08-24T00:47:45;2.40;;;1.20;;
41456;SDS011;27197;51.752;5.220;2023-08-24T00:50:20;2.00;;;1.10;;
41456;SDS011;27197;51.752;5.220;2023-08-24T00:52:51;1.87;;;1.07;;
41456;SDS011;27197;51.752;5.220;2023-08-24T01:21:40;4.15;;;1.90;;
41456;SDS011;27197;51.752;5.220;2023-08-24T01:24:14;4.20;;;2.05;;
41456;SDS011;27197;51.752;5.220;2023-08-24T01:26:47;2.00;;;1.00;;
41456;SDS011;27197;51.752;5.220;2023-08-24T01:29:20;4.22;;;1.70;;
41456;SDS011;27197;51.752;5.220;2023-08-24T01:31:52;1.80;;;1.00;;
41456;SDS011;27197;51.752;5.220;2023-08-24T01:34:24;5.22;;;2.65;;
41456;SDS011;27197;51.752;5.220;2023-08-24T01:36:54;2.27;;;1.00;;
41456;SDS011;27197;51.752;5.220;2023-08-24T01:39:28;2.98;;;1.57;;
41456;SDS011;27197;51.752;5.220;2023-08-24T01:42:00;2.08;;;1.02;;
41456;SDS011;27197;51.752;5.220;2023-08-24T01:44:33;1.92;;;1.02;;
41456;SDS011;27197;51.752;5.220;2023-08-24T01:47:05;2.05;;;1.27;;
41456;SDS011;27197;51.752;5.220;2023-08-24T01:49:40;1.72;;;0.95;;
41456;SDS011;27197;51.752;5.220;2023-08-24T01:52:13;2.10;;;1.42;;
41456;SDS011;27197;51.752;5.220;2023-08-24T01:54:43;2.02;;;1.17;;
41456;SDS011;27197;51.752;5.220;2023-08-24T01:57:14;3.87;;;2.22;;
41456;SDS011;27197;51.752;5.220;2023-08-24T01:59:48;2.55;;;1.10;;
41456;SDS011;27197;51.752;5.220;2023-08-24T03:25:37;1.92;;;1.20;;
41456;SDS011;27197;51.752;5.220;2023-08-24T03:28:08;6.00;;;3.40;;
41456;SDS011;27197;51.752;5.220;2023-08-24T03:30:46;3.80;;;2.55;;
41456;SDS011;27197;51.752;5.220;2023-08-24T05:04:36;3.00;;;1.25;;
41456;SDS011;27197;51.752;5.220;2023-08-24T05:07:10;2.02;;;1.10;;
41456;SDS011;27197;51.752;5.220;2023-08-24T05:09:41;3.45;;;1.22;;
41456;SDS011;27197;51.752;5.220;2023-08-24T05:12:11;1.47;;;1.07;;
41456;SDS011;27197;51.752;5.220;2023-08-24T05:14:42;1.60;;;1.00;;
41456;SDS011;27197;51.752;5.220;2023-08-24T05:17:13;1.85;;;1.15;;
41456;SDS011;27197;51.752;5.220;2023-08-24T05:19:45;4.33;;;1.55;;
41456;SDS011;27197;51.752;5.220;2023-08-24T05:22:15;2.08;;;0.85;;
41456;SDS011;27197;51.752;5.220;2023-08-24T05:24:45;1.95;;;1.17;;
41456;SDS011;27197;51.752;5.220;2023-08-24T05:27:16;2.85;;;1.30;;
41456;SDS011;27197;51.752;5.220;2023-08-24T05:29:48;1.42;;;0.95;;
41456;SDS011;27197;51.752;5.220;2023-08-24T05:32:21;2.00;;;1.30;;
41456;SDS011;27197;51.752;5.220;2023-08-24T05:34:51;1.87;;;1.00;;
41456;SDS011;27197;51.752;5.220;2023-08-24T05:37:21;2.83;;;1.40;;
41456;SDS011;27197;51.752;5.220;2023-08-24T05:39:51;1.85;;;1.10;;
41456;SDS011;27197;51.752;5.220;2023-08-24T05:42:22;6.30;;;1.60;;
41456;SDS011;27197;51.752;5.220;2023-08-24T05:44:50;8.23;;;1.92;;
41456;SDS011;27197;51.752;5.220;2023-08-24T05:47:22;7.80;;;1.95;;
41456;SDS011;27197;51.752;5.220;2023-08-24T05:49:52;9.30;;;2.30;;
41456;SDS011;27197;51.752;5.220;2023-08-24T05:52:22;9.38;;;2.62;;
41456;SDS011;27197;51.752;5.220;2023-08-24T05:54:54;6.87;;;2.20;;
41456;SDS011;27197;51.752;5.220;2023-08-24T05:57:24;7.20;;;1.92;;
41456;SDS011;27197;51.752;5.220;2023-08-24T05:59:54;9.45;;;2.15;;
41456;SDS011;27197;51.752;5.220;2023-08-24T06:02:24;4.80;;;2.67;;
41456;SDS011;27197;51.752;5.220;2023-08-24T06:04:55;5.97;;;2.25;;
41456;SDS011;27197;51.752;5.220;2023-08-24T06:07:26;5.35;;;1.85;;
41456;SDS011;27197;51.752;5.220;2023-08-24T06:09:56;7.30;;;2.55;;
41456;SDS011;27197;51.752;5.220;2023-08-24T06:12:27;6.35;;;2.87;;
41456;SDS011;27197;51.752;5.220;2023-08-24T06:14:58;6.10;;;2.62;;
41456;SDS011;27197;51.752;5.220;2023-08-24T06:17:30;5.53;;;2.08;;
41456;SDS011;27197;51.752;5.220;2023-08-24T06:20:01;4.65;;;2.17;;
41456;SDS011;27197;51.752;5.220;2023-08-24T06:22:31;5.45;;;2.58;;
41456;SDS011;27197;51.752;5.220;2023-08-24T08:06:39;6.30;;;3.17;;
41456;SDS011;27197;51.752;5.220;2023-08-24T08:09:10;5.55;;;3.70;;
41456;SDS011;27197;51.752;5.220;2023-08-24T08:11:42;3.60;;;2.27;;
41456;SDS011;27197;51.752;5.220;2023-08-24T08:14:15;6.22;;;2.70;;
41456;SDS011;27197;51.752;5.220;2023-08-24T08:16:45;9.95;;;7.90;;
41456;SDS011;27197;51.752;5.220;2023-08-24T08:19:17;8.45;;;4.90;;
41456;SDS011;27197;51.752;5.220;2023-08-24T08:21:47;5.20;;;2.42;;
41456;SDS011;27197;51.752;5.220;2023-08-24T08:24:19;4.33;;;2.70;;
41456;SDS011;27197;51.752;5.220;2023-08-24T08:26:48;10.48;;;8.33;;
41456;SDS011;27197;51.752;5.220;2023-08-24T08:29:21;5.72;;;3.27;;
41456;SDS011;27197;51.752;5.220;2023-08-24T08:31:53;5.30;;;3.83;;
41456;SDS011;27197;51.752;5.220;2023-08-24T08:37:12;3.05;;;1.98;;
41456;SDS011;27197;51.752;5.220;2023-08-24T08:39:47;5.40;;;2.05;;
41456;SDS011;27197;51.752;5.220;2023-08-24T08:42:17;5.08;;;3.08;;
41456;SDS011;27197;51.752;5.220;2023-08-24T08:44:47;7.58;;;5.22;;
41456;SDS011;27197;51.752;5.220;2023-08-24T08:47:18;8.00;;;4.83;;
41456;SDS011;27197;51.752;5.220;2023-08-24T08:49:53;5.78;;;3.20;;
41456;SDS011;27197;51.752;5.220;2023-08-24T08:52:24;3.52;;;2.08;;
41456;SDS011;27197;51.752;5.220;2023-08-24T08:54:54;8.10;;;5.37;;
41456;SDS011;27197;51.752;5.220;2023-08-24T08:57:24;11.55;;;6.67;;
41456;SDS011;27197;51.752;5.220;2023-08-24T08:59:55;5.40;;;2.52;;
41456;SDS011;27197;51.752;5.220;2023-08-24T09:02:25;2.92;;;1.70;;
41456;SDS011;27197;51.752;5.220;2023-08-24T09:04:56;4.17;;;2.47;;
41456;SDS011;27197;51.752;5.220;2023-08-24T09:07:27;6.03;;;4.12;;
41456;SDS011;27197;51.752;5.220;2023-08-24T09:09:57;8.65;;;4.47;;
41456;SDS011;27197;51.752;5.220;2023-08-24T09:12:26;3.67;;;2.22;;
41456;SDS011;27197;51.752;5.220;2023-08-24T09:14:59;9.55;;;7.50;;
41456;SDS011;27197;51.752;5.220;2023-08-24T09:17:30;4.50;;;2.42;;
41456;SDS011;27197;51.752;5.220;2023-08-24T10:52:21;12.25;;;8.03;;
41456;SDS011;27197;51.752;5.220;2023-08-24T10:54:53;6.58;;;4.35;;
41456;SDS011;27197;51.752;5.220;2023-08-24T10:57:45;7.00;;;5.53;;
41456;SDS011;27197;51.752;5.220;2023-08-24T11:00:17;8.85;;;6.65;;
41456;SDS011;27197;51.752;5.220;2023-08-24T11:02:50;9.13;;;5.17;;
41456;SDS011;27197;51.752;5.220;2023-08-24T11:05:25;10.90;;;8.08;;
41456;SDS011;27197;51.752;5.220;2023-08-24T11:07:58;12.63;;;9.00;;
41456;SDS011;27197;51.752;5.220;2023-08-24T11:13:20;7.97;;;6.20;;
41456;SDS011;27197;51.752;5.220;2023-08-24T11:15:50;4.05;;;2.55;;
41456;SDS011;27197;51.752;5.220;2023-08-24T11:18:24;15.75;;;12.30;;
41456;SDS011;27197;51.752;5.220;2023-08-24T11:21:03;12.33;;;8.88;;
41456;SDS011;27197;51.752;5.220;2023-08-24T11:23:35;8.25;;;6.25;;
41456;SDS011;27197;51.752;5.220;2023-08-24T11:26:10;8.85;;;5.60;;
41456;SDS011;27197;51.752;5.220;2023-08-24T11:28:42;14.90;;;11.80;;
41456;SDS011;27197;51.752;5.220;2023-08-24T11:31:12;9.93;;;6.47;;
41456;SDS011;27197;51.752;5.220;2023-08-24T11:33:42;7.47;;;4.55;;
41456;SDS011;27197;51.752;5.220;2023-08-24T11:36:18;15.85;;;10.88;;
41456;SDS011;27197;51.752;5.220;2023-08-24T11:38:46;13.70;;;9.38;;
41456;SDS011;27197;51.752;5.220;2023-08-24T11:41:18;15.70;;;12.53;;
41456;SDS011;27197;51.752;5.220;2023-08-24T11:43:49;9.60;;;6.53;;
41456;SDS011;27197;51.752;5.220;2023-08-24T11:46:21;19.67;;;14.25;;
41456;SDS011;27197;51.752;5.220;2023-08-24T11:48:59;8.78;;;5.15;;
41456;SDS011;27197;51.752;5.220;2023-08-24T11:51:27;5.47;;;3.50;;
41456;SDS011;27197;51.752;5.220;2023-08-24T11:54:00;15.63;;;10.40;;
41456;SDS011;27197;51.752;5.220;2023-08-24T11:56:32;12.13;;;10.28;;
41456;SDS011;27197;51.752;5.220;2023-08-24T11:59:01;11.93;;;7.95;;
41456;SDS011;27197;51.752;5.220;2023-08-24T12:01:33;8.53;;;5.10;;
41456;SDS011;27197;51.752;5.220;2023-08-24T12:04:04;13.08;;;7.97;;
41456;SDS011;27197;51.752;5.220;2023-08-24T12:06:32;7.08;;;3.30;;
41456;SDS011;27197;51.752;5.220;2023-08-24T12:09:04;9.63;;;7.37;;
41456;SDS011;27197;51.752;5.220;2023-08-24T12:11:35;8.43;;;6.35;;
41456;SDS011;27197;51.752;5.220;2023-08-24T12:14:16;9.35;;;5.30;;
41456;SDS011;27197;51.752;5.220;2023-08-24T12:16:49;8.45;;;4.67;;
41456;SDS011;27197;51.752;5.220;2023-08-24T12:19:25;8.90;;;5.05;;
41456;SDS011;27197;51.752;5.220;2023-08-24T12:21:52;10.05;;;5.92;;
41456;SDS011;27197;51.752;5.220;2023-08-24T12:24:26;10.70;;;6.42;;
41456;SDS011;27197;51.752;5.220;2023-08-24T12:26:56;9.15;;;5.92;;
41456;SDS011;27197;51.752;5.220;2023-08-24T12:42:18;16.62;;;10.82;;
41456;SDS011;27197;51.752;5.220;2023-08-24T12:44:47;17.07;;;11.20;;
41456;SDS011;27197;51.752;5.220;2023-08-24T12:47:17;16.23;;;11.00;;
41456;SDS011;27197;51.752;5.220;2023-08-24T12:49:47;14.47;;;10.78;;
41456;SDS011;27197;51.752;5.220;2023-08-24T12:52:22;15.58;;;10.45;;
41456;SDS011;27197;51.752;5.220;2023-08-24T12:54:52;9.03;;;4.80;;
41456;SDS011;27197;51.752;5.220;2023-08-24T12:57:22;14.43;;;9.83;;
41456;SDS011;27197;51.752;5.220;2023-08-24T12:59:52;9.75;;;6.22;;
41456;SDS011;27197;51.752;5.220;2023-08-24T13:02:22;17.67;;;10.40;;
41456;SDS011;27197;51.752;5.220;2023-08-24T13:04:53;14.78;;;10.70;;
41456;SDS011;27197;51.752;5.220;2023-08-24T13:07:24;13.20;;;11.08;;
41456;SDS011;27197;51.752;5.220;2023-08-24T13:09:55;10.05;;;8.60;;
41456;SDS011;27197;51.752;5.220;2023-08-24T13:12:26;12.20;;;8.53;;
41456;SDS011;27197;51.752;5.220;2023-08-24T13:14:56;7.90;;;4.12;;
41456;SDS011;27197;51.752;5.220;2023-08-24T13:17:27;12.40;;;8.48;;
41456;SDS011;27197;51.752;5.220;2023-08-24T13:19:59;11.97;;;7.97;;
41456;SDS011;27197;51.752;5.220;2023-08-24T13:22:30;7.22;;;4.15;;
41456;SDS011;27197;51.752;5.220;2023-08-24T13:25:00;12.05;;;6.70;;
41456;SDS011;27197;51.752;5.220;2023-08-24T13:27:29;12.15;;;7.70;;
41456;SDS011;27197;51.752;5.220;2023-08-24T13:30:02;10.48;;;7.70;;
41456;SDS011;27197;51.752;5.220;2023-08-24T13:32:33;10.63;;;7.53;;
41456;SDS011;27197;51.752;5.220;2023-08-24T13:35:05;8.73;;;6.62;;
41456;SDS011;27197;51.752;5.220;2023-08-24T13:37:36;14.80;;;7.83;;
41456;SDS011;27197;51.752;5.220;2023-08-24T13:40:06;9.70;;;6.87;;
41456;SDS011;27197;51.752;5.220;2023-08-24T13:42:38;13.28;;;8.18;;
41456;SDS011;27197;51.752;5.220;2023-08-24T13:45:08;9.63;;;6.97;;
41456;SDS011;27197;51.752;5.220;2023-08-24T13:47:39;11.97;;;7.25;;
41456;SDS011;27197;51.752;5.220;2023-08-24T13:50:08;9.40;;;5.45;;
41456;SDS011;27197;51.752;5.220;2023-08-24T13:55:34;10.90;;;6.85;;
41456;SDS011;27197;51.752;5.220;2023-08-24T13:58:05;7.15;;;4.65;;
41456;SDS011;27197;51.752;5.220;2023-08-24T14:00:34;9.03;;;5.58;;
41456;SDS011;27197;51.752;5.220;2023-08-24T14:03:05;10.60;;;6.30;;
41456;SDS011;27197;51.752;5.220;2023-08-24T14:05:40;7.80;;;5.08;;
41456;SDS011;27197;51.752;5.220;2023-08-24T14:08:09;10.35;;;6.62;;
41456;SDS011;27197;51.752;5.220;2023-08-24T14:10:41;8.30;;;5.58;;
41456;SDS011;27197;51.752;5.220;2023-08-24T14:13:11;7.17;;;4.60;;
41456;SDS011;27197;51.752;5.220;2023-08-24T14:15:41;6.22;;;4.45;;
41456;SDS011;27197;51.752;5.220;2023-08-24T14:18:11;8.10;;;5.85;;
41456;SDS011;27197;51.752;5.220;2023-08-24T14:20:42;10.85;;;5.42;;
41456;SDS011;27197;51.752;5.220;2023-08-24T14:23:12;10.13;;;6.15;;
41456;SDS011;27197;51.752;5.220;2023-08-24T14:25:43;8.35;;;4.95;;
41456;SDS011;27197;51.752;5.220;2023-08-24T14:28:18;8.70;;;5.50;;
41456;SDS011;27197;51.752;5.220;2023-08-24T14:30:47;7.95;;;4.92;;
41456;SDS011;27197;51.752;5.220;2023-08-24T14:33:21;11.50;;;5.72;;
41456;SDS011;27197;51.752;5.220;2023-08-24T14:35:54;6.78;;;3.85;;
41456;SDS011;27197;51.752;5.220;2023-08-24T14:38:24;6.70;;;4.80;;
41456;SDS011;27197;51.752;5.220;2023-08-24T14:40:54;7.62;;;4.67;;
41456;SDS011;27197;51.752;5.220;2023-08-24T14:43:25;5.78;;;2.72;;
41456;SDS011;27197;51.752;5.220;2023-08-24T14:45:57;8.15;;;4.17;;
41456;SDS011;27197;51.752;5.220;2023-08-24T14:48:28;9.25;;;4.72;;
41456;SDS011;27197;51.752;5.220;2023-08-24T14:50:59;6.15;;;3.98;;
41456;SDS011;27197;51.752;5.220;2023-08-24T14:53:27;5.95;;;3.35;;
41456;SDS011;27197;51.752;5.220;2023-08-24T14:55:59;5.78;;;3.05;;
41456;SDS011;27197;51.752;5.220;2023-08-24T14:58:29;5.00;;;2.90;;
41456;SDS011;27197;51.752;5.220;2023-08-24T15:00:59;6.30;;;3.02;;
41456;SDS011;27197;51.752;5.220;2023-08-24T15:03:30;4.00;;;2.50;;
41456;SDS011;27197;51.752;5.220;2023-08-24T15:06:05;4.37;;;2.60;;
41456;SDS011;27197;51.752;5.220;2023-08-24T15:08:34;4.08;;;2.42;;
41456;SDS011;27197;51.752;5.220;2023-08-24T15:11:05;6.60;;;2.83;;
41456;SDS011;27197;51.752;5.220;2023-08-24T15:13:38;6.08;;;2.58;;
41456;SDS011;27197;51.752;5.220;2023-08-24T15:16:07;4.30;;;2.45;;
41456;SDS011;27197;51.752;5.220;2023-08-24T15:18:37;4.95;;;2.52;;
41456;SDS011;27197;51.752;5.220;2023-08-24T15:21:07;4.70;;;2.92;;
41456;SDS011;27197;51.752;5.220;2023-08-24T15:23:39;6.62;;;3.10;;
41456;SDS011;27197;51.752;5.220;2023-08-24T15:26:08;4.58;;;2.50;;
41456;SDS011;27197;51.752;5.220;2023-08-24T15:31:37;4.55;;;2.50;;
41456;SDS011;27197;51.752;5.220;2023-08-24T15:34:08;4.60;;;2.17;;
41456;SDS011;27197;51.752;5.220;2023-08-24T15:36:40;4.20;;;2.37;;
41456;SDS011;27197;51.752;5.220;2023-08-24T15:39:12;6.45;;;3.22;;
41456;SDS011;27197;51.752;5.220;2023-08-24T15:41:42;6.20;;;3.05;;
41456;SDS011;27197;51.752;5.220;2023-08-24T15:47:10;5.33;;;2.47;;
41456;SDS011;27197;51.752;5.220;2023-08-24T15:49:44;3.27;;;2.20;;
41456;SDS011;27197;51.752;5.220;2023-08-24T15:52:15;4.75;;;2.37;;
41456;SDS011;27197;51.752;5.220;2023-08-24T15:54:46;5.62;;;2.37;;
41456;SDS011;27197;51.752;5.220;2023-08-24T15:57:19;5.60;;;2.62;;
41456;SDS011;27197;51.752;5.220;2023-08-24T15:59:52;6.05;;;2.42;;
41456;SDS011;27197;51.752;5.220;2023-08-24T16:02:23;4.85;;;2.85;;
41456;SDS011;27197;51.752;5.220;2023-08-24T16:04:56;3.80;;;2.30;;
41456;SDS011;27197;51.752;5.220;2023-08-24T16:07:26;5.50;;;2.08;;
41456;SDS011;27197;51.752;5.220;2023-08-24T16:10:02;3.95;;;2.10;;
41456;SDS011;27197;51.752;5.220;2023-08-24T16:12:37;3.83;;;1.87;;
41456;SDS011;27197;51.752;5.220;2023-08-24T16:15:08;3.83;;;2.27;;
41456;SDS011;27197;51.752;5.220;2023-08-24T16:17:36;3.55;;;2.00;;
41456;SDS011;27197;51.752;5.220;2023-08-24T16:20:08;4.65;;;2.02;;
41456;SDS011;27197;51.752;5.220;2023-08-24T16:22:40;3.83;;;2.15;;
41456;SDS011;27197;51.752;5.220;2023-08-24T16:25:12;5.25;;;1.95;;
41456;SDS011;27197;51.752;5.220;2023-08-24T16:27:45;5.12;;;2.12;;
41456;SDS011;27197;51.752;5.220;2023-08-24T16:55:15;3.52;;;2.08;;
41456;SDS011;27197;51.752;5.220;2023-08-24T16:57:45;5.15;;;1.80;;
41456;SDS011;27197;51.752;5.220;2023-08-24T17:00:17;4.25;;;1.90;;
41456;SDS011;27197;51.752;5.220;2023-08-24T17:02:52;3.05;;;2.00;;
41456;SDS011;27197;51.752;5.220;2023-08-24T17:05:21;4.80;;;2.22;;
41456;SDS011;27197;51.752;5.220;2023-08-24T17:08:03;2.92;;;1.80;;
41456;SDS011;27197;51.752;5.220;2023-08-24T17:38:44;5.47;;;2.00;;
41456;SDS011;27197;51.752;5.220;2023-08-24T17:41:14;3.17;;;1.57;;
41456;SDS011;27197;51.752;5.220;2023-08-24T17:43:46;4.42;;;2.77;;
41456;SDS011;27197;51.752;5.220;2023-08-24T17:46:16;5.33;;;1.87;;
41456;SDS011;27197;51.752;5.220;2023-08-24T17:48:46;2.50;;;1.50;;
41456;SDS011;27197;51.752;5.220;2023-08-24T17:51:17;3.20;;;1.77;;
41456;SDS011;27197;51.752;5.220;2023-08-24T17:53:48;2.37;;;1.25;;
41456;SDS011;27197;51.752;5.220;2023-08-24T17:56:20;4.62;;;1.90;;
41456;SDS011;27197;51.752;5.220;2023-08-24T17:58:52;3.12;;;2.02;;
41456;SDS011;27197;51.752;5.220;2023-08-24T18:01:22;5.35;;;1.72;;
41456;SDS011;27197;51.752;5.220;2023-08-24T18:03:52;2.92;;;1.80;;
41456;SDS011;27197;51.752;5.220;2023-08-24T18:06:23;5.00;;;1.70;;
41456;SDS011;27197;51.752;5.220;2023-08-24T18:08:52;5.45;;;2.30;;
41456;SDS011;27197;51.752;5.220;2023-08-24T18:11:25;6.37;;;2.47;;
41456;SDS011;27197;51.752;5.220;2023-08-24T18:13:56;4.97;;;1.95;;
41456;SDS011;27197;51.752;5.220;2023-08-24T18:16:27;2.75;;;1.62;;
41456;SDS011;27197;51.752;5.220;2023-08-24T18:18:57;3.52;;;1.87;;
41456;SDS011;27197;51.752;5.220;2023-08-24T18:21:29;3.60;;;2.22;;
41456;SDS011;27197;51.752;5.220;2023-08-24T18:23:59;5.15;;;2.20;;
41456;SDS011;27197;51.752;5.220;2023-08-24T18:26:29;4.08;;;1.87;;
41456;SDS011;27197;51.752;5.220;2023-08-24T18:29:03;3.58;;;1.85;;
41456;SDS011;27197;51.752;5.220;2023-08-24T18:31:34;5.87;;;1.90;;
41456;SDS011;27197;51.752;5.220;2023-08-24T18:34:04;4.08;;;2.37;;
41456;SDS011;27197;51.752;5.220;2023-08-24T18:36:35;4.55;;;2.15;;
41456;SDS011;27197;51.752;5.220;2023-08-24T18:39:07;4.75;;;2.30;;
41456;SDS011;27197;51.752;5.220;2023-08-24T18:41:37;5.28;;;2.30;;
41456;SDS011;27197;51.752;5.220;2023-08-24T18:44:06;6.47;;;2.15;;
41456;SDS011;27197;51.752;5.220;2023-08-24T18:46:37;4.22;;;2.20;;
41456;SDS011;27197;51.752;5.220;2023-08-24T18:49:07;4.62;;;2.33;;
41456;SDS011;27197;51.752;5.220;2023-08-24T18:51:39;5.35;;;2.30;;
41456;SDS011;27197;51.752;5.220;2023-08-24T18:54:09;3.22;;;2.50;;
41456;SDS011;27197;51.752;5.220;2023-08-24T18:56:40;4.58;;;2.37;;
41456;SDS011;27197;51.752;5.220;2023-08-24T18:59:10;3.62;;;2.20;;
41456;SDS011;27197;51.752;5.220;2023-08-24T19:01:41;2.33;;;1.72;;
41456;SDS011;27197;51.752;5.220;2023-08-24T19:04:11;5.95;;;2.47;;
41456;SDS011;27197;51.752;5.220;2023-08-24T19:06:43;5.50;;;2.33;;
41456;SDS011;27197;51.752;5.220;2023-08-24T19:09:13;4.20;;;2.10;;
41456;SDS011;27197;51.752;5.220;2023-08-24T19:11:44;4.20;;;2.02;;
41456;SDS011;27197;51.752;5.220;2023-08-24T19:14:14;4.40;;;2.10;;
41456;SDS011;27197;51.752;5.220;2023-08-24T19:16:43;3.47;;;1.72;;
41456;SDS011;27197;51.752;5.220;2023-08-24T19:19:14;6.30;;;2.60;;
41456;SDS011;27197;51.752;5.220;2023-08-24T19:21:44;3.90;;;2.10;;
41456;SDS011;27197;51.752;5.220;2023-08-24T19:24:14;4.65;;;1.90;;
41456;SDS011;27197;51.752;5.220;2023-08-24T19:26:45;4.30;;;2.55;;
41456;SDS011;27197;51.752;5.220;2023-08-24T20:40:06;4.33;;;2.65;;
41456;SDS011;27197;51.752;5.220;2023-08-24T20:42:39;7.15;;;2.87;;
41456;SDS011;27197;51.752;5.220;2023-08-24T20:45:10;6.58;;;3.17;;
41456;SDS011;27197;51.752;5.220;2023-08-24T20:47:40;5.05;;;3.50;;
41456;SDS011;27197;51.752;5.220;2023-08-24T20:50:12;4.72;;;3.40;;
41456;SDS011;27197;51.752;5.220;2023-08-24T20:52:43;5.53;;;3.87;;
41456;SDS011;27197;51.752;5.220;2023-08-24T20:55:15;5.95;;;4.33;;
41456;SDS011;27197;51.752;5.220;2023-08-24T20:57:45;6.15;;;4.45;;
41456;SDS011;27197;51.752;5.220;2023-08-24T21:00:17;6.90;;;4.05;;
41456;SDS011;27197;51.752;5.220;2023-08-24T21:02:48;8.55;;;4.17;;
41456;SDS011;27197;51.752;5.220;2023-08-24T21:05:19;6.42;;;3.65;;
41456;SDS011;27197;51.752;5.220;2023-08-24T21:07:50;6.37;;;3.77;;
41456;SDS011;27197;51.752;5.220;2023-08-24T21:10:20;7.08;;;3.47;;
41456;SDS011;27197;51.752;5.220;2023-08-24T21:12:55;7.08;;;3.35;;
41456;SDS011;27197;51.752;5.220;2023-08-24T21:15:25;6.92;;;4.17;;
41456;SDS011;27197;51.752;5.220;2023-08-24T21:17:56;6.20;;;4.12;;
41456;SDS011;27197;51.752;5.220;2023-08-24T21:20:27;7.37;;;3.30;;
41456;SDS011;27197;51.752;5.220;2023-08-24T21:22:57;5.17;;;3.80;;
41456;SDS011;27197;51.752;5.220;2023-08-24T21:25:27;6.22;;;3.92;;
41456;SDS011;27197;51.752;5.220;2023-08-24T21:27:57;4.58;;;3.12;;
41456;SDS011;27197;51.752;5.220;2023-08-24T21:30:29;6.15;;;4.40;;
41456;SDS011;27197;51.752;5.220;2023-08-24T21:33:02;8.13;;;4.70;;
41456;SDS011;27197;51.752;5.220;2023-08-24T21:35:32;7.95;;;4.03;;
41456;SDS011;27197;51.752;5.220;2023-08-24T21:38:03;5.75;;;3.85;;
41456;SDS011;27197;51.752;5.220;2023-08-24T21:40:37;7.78;;;4.40;;
41456;SDS011;27197;51.752;5.220;2023-08-24T21:43:08;5.45;;;3.40;;
41456;SDS011;27197;51.752;5.220;2023-08-24T21:45:38;5.45;;;4.17;;
41456;SDS011;27197;51.752;5.220;2023-08-24T21:48:08;6.12;;;3.42;;
41456;SDS011;27197;51.752;5.220;2023-08-24T21:50:39;3.30;;;2.60;;
41456;SDS011;27197;51.752;5.220;2023-08-24T21:53:10;5.60;;;2.90;;
41456;SDS011;27197;51.752;5.220;2023-08-24T21:55:43;4.75;;;3.25;;
41456;SDS011;27197;51.752;5.220;2023-08-24T21:58:14;5.95;;;3.83;;
41456;SDS011;27197;51.752;5.220;2023-08-24T22:00:44;6.15;;;4.70;;
41456;SDS011;27197;51.752;5.220;2023-08-24T22:03:17;8.85;;;4.35;;
41456;SDS011;27197;51.752;5.220;2023-08-24T22:05:48;10.65;;;4.75;;
41456;SDS011;27197;51.752;5.220;2023-08-24T22:08:19;7.58;;;5.25;;
41456;SDS011;27197;51.752;5.220;2023-08-24T22:10:50;7.12;;;4.85;;
41456;SDS011;27197;51.752;5.220;2023-08-24T22:13:22;6.92;;;4.90;;
41456;SDS011;27197;51.752;5.220;2023-08-24T22:15:53;5.70;;;4.28;;
41456;SDS011;27197;51.752;5.220;2023-08-24T22:18:24;6.90;;;4.87;;
41456;SDS011;27197;51.752;5.220;2023-08-24T22:20:54;7.03;;;4.72;;
41456;SDS011;27197;51.752;5.220;2023-08-24T22:23:24;8.13;;;5.10;;
41456;SDS011;27197;51.752;5.220;2023-08-24T22:25:58;5.30;;;4.40;;
41456;SDS011;27197;51.752;5.220;2023-08-24T22:28:28;6.90;;;5.10;;
41456;SDS011;27197;51.752;5.220;2023-08-24T22:30:58;4.33;;;2.75;;
41456;SDS011;27197;51.752;5.220;2023-08-24T22:33:27;2.62;;;1.65;;
41456;SDS011;27197;51.752;5.220;2023-08-24T22:35:59;2.92;;;1.67;;
41456;SDS011;27197;51.752;5.220;2023-08-24T22:38:29;2.72;;;1.55;;
41456;SDS011;27197;51.752;5.220;2023-08-24T22:40:59;3.22;;;2.25;;
41456;SDS011;27197;51.752;5.220;2023-08-24T22:43:29;6.78;;;4.47;;
41456;SDS011;27197;51.752;5.220;2023-08-24T22:46:01;4.55;;;3.60;;
41456;SDS011;27197;51.752;5.220;2023-08-24T22:48:31;3.12;;;2.08;;
41456;SDS011;27197;51.752;5.220;2023-08-24T22:51:02;4.72;;;3.42;;
41456;SDS011;27197;51.752;5.220;2023-08-24T22:53:32;3.62;;;2.08;;
41456;SDS011;27197;51.752;5.220;2023-08-24T22:56:02;2.45;;;1.30;;
41456;SDS011;27197;51.752;5.220;2023-08-24T22:58:32;7.72;;;5.85;;
41456;SDS011;27197;51.752;5.220;2023-08-24T23:01:12;7.55;;;5.00;;
41456;SDS011;27197;51.752;5.220;2023-08-24T23:03:44;7.95;;;5.33;;
41456;SDS011;27197;51.752;5.220;2023-08-24T23:06:15;2.47;;;1.70;;
41456;SDS011;27197;51.752;5.220;2023-08-24T23:08:49;3.20;;;1.82;;
41456;SDS011;27197;51.752;5.220;2023-08-24T23:11:20;4.47;;;1.82;;
41456;SDS011;27197;51.752;5.220;2023-08-24T23:13:50;3.20;;;1.67;;
41456;SDS011;27197;51.752;5.220;2023-08-24T23:16:20;2.92;;;1.67;;
41456;SDS011;27197;51.752;5.220;2023-08-24T23:18:51;3.37;;;1.52;;
41456;SDS011;27197;51.752;5.220;2023-08-24T23:21:21;2.52;;;1.50;;
41456;SDS011;27197;51.752;5.220;2023-08-24T23:23:51;2.15;;;1.52;;
41456;SDS011;27197;51.752;5.220;2023-08-24T23:26:22;3.45;;;1.60;;
41456;SDS011;27197;51.752;5.220;2023-08-24T23:28:53;2.33;;;1.57;;
41456;SDS011;27197;51.752;5.220;2023-08-24T23:31:24;4.05;;;1.62;;
41456;SDS011;27197;51.752;5.220;2023-08-24T23:33:55;2.98;;;1.80;;
41456;SDS011;27197;51.752;5.220;2023-08-24T23:36:25;2.70;;;1.57;;
41456;SDS011;27197;51.752;5.220;2023-08-24T23:38:55;2.83;;;1.80;;
41456;SDS011;27197;51.752;5.220;2023-08-24T23:41:25;3.37;;;1.42;;
41456;SDS011;27197;51.752;5.220;2023-08-24T23:43:55;3.17;;;1.65;;
41456;SDS011;27197;51.752;5.220;2023-08-24T23:46:27;2.80;;;1.60;;
41456;SDS011;27197;51.752;5.220;2023-08-24T23:48:57;2.52;;;2.05;;
41456;SDS011;27197;51.752;5.220;2023-08-24T23:51:28;4.05;;;2.35;;
41456;SDS011;27197;51.752;5.220;2023-08-24T23:53:58;7.67;;;5.35;;
41456;SDS011;27197;51.752;5.220;2023-08-24T23:56:29;4.95;;;2.30;;
41456;SDS011;27197;51.752;5.220;2023-08-24T23:58:59;2.58;;;1.67;;
